Time;durP1;ratioP1;P1;durP2;ratioP2;P2;SDS_P1;SDS_P2;PMS_P1;PMS_P2;Temp;Humidity;BMP_temperature;BMP_pressure;BME280_temperature;BME280_humidity;BME280_pressure;Samples;Min_cycle;Max_cycle;Signal;HPM_P1;HPM_P2
2022/12/25 00:01:08;;;;;;;;;;;25.40;99.90;;;;;;5051449;28;19917;-69
2022/12/25 00:03:34;;;;;;;;;;;25.50;99.90;;;;;;5055883;28;19940;-70
2022/12/25 00:06:01;;;;;;;;;;;25.70;99.90;;;;;;5047823;28;19974;-71
2022/12/25 00:08:28;;;;;;;;;;;25.90;99.90;;;;;;5044681;28;19909;-69
2022/12/25 00:10:58;;;;;;;;;;;26.30;99.90;;;;;;5041812;28;20264;-69
2022/12/25 00:13:25;;;;;;;;;;;26.50;99.90;;;;;;5042440;28;20269;-71
2022/12/25 00:15:51;;;;;;;;;;;26.90;99.20;;;;;;5042007;28;20230;-70
2022/12/25 00:18:18;;;;;;;;;;;27.20;98.80;;;;;;5039388;28;19921;-69
2022/12/25 00:20:45;;;;;;;;;;;27.30;98.20;;;;;;5043083;28;19958;-69
2022/12/25 00:23:11;;;;;;;;;;;27.50;97.80;;;;;;5046656;28;19912;-69
2022/12/25 00:25:41;;;;;;;;;;;27.40;97.50;;;;;;5052878;28;19912;-69
2022/12/25 00:28:08;;;;;;;;;;;27.40;97.80;;;;;;5051355;28;19943;-70
2022/12/25 00:30:39;;;;;;;;;;;27.30;97.80;;;;;;5055874;28;20245;-69
2022/12/25 00:33:06;;;;;;;;;;;27.30;98.20;;;;;;5051360;28;20384;-70
2022/12/25 00:35:33;;;;;;;;;;;27.30;97.30;;;;;;5054449;28;19909;-70
2022/12/25 00:37:59;;;;;;;;;;;27.30;97.80;;;;;;5052878;28;19920;-68
2022/12/25 00:40:26;;;;;;;;;;;27.30;97.80;;;;;;5038629;28;19913;-69
2022/12/25 00:42:52;;;;;;;;;;;27.30;97.60;;;;;;5033425;28;19908;-69
2022/12/25 00:45:24;;;;;;;;;;;26.90;97.90;;;;;;5048087;28;19913;-68
2022/12/25 00:47:51;;;;;;;;;;;26.90;97.90;;;;;;5054002;28;19912;-68
2022/12/25 00:50:18;;;;;;;;;;;26.80;98.10;;;;;;5051069;28;20357;-67
2022/12/25 00:52:45;;;;;;;;;;;26.80;98.10;;;;;;5052814;28;20268;-68
2022/12/25 00:55:11;;;;;;;;;;;26.90;98.00;;;;;;5046755;28;19909;-67
2022/12/25 00:57:38;;;;;;;;;;;26.70;98.20;;;;;;5053939;28;19956;-68
2022/12/25 01:00:05;;;;;;;;;;;26.90;98.00;;;;;;5054514;28;19913;-68
2022/12/25 01:02:32;;;;;;;;;;;26.90;98.10;;;;;;5055237;28;19944;-68
2022/12/25 01:04:58;;;;;;;;;;;27.10;97.70;;;;;;5052852;28;20368;-68
2022/12/25 01:07:25;;;;;;;;;;;27.30;97.70;;;;;;5049159;28;19937;-69
2022/12/25 01:12:39;;;;;;;;;;;27.80;96.90;;;;;;5038740;28;20003;-68
2022/12/25 01:15:07;;;;;;;;;;;28.10;96.60;;;;;;5039118;28;20378;-67
2022/12/25 01:17:34;;;;;;;;;;;28.10;96.60;;;;;;5045544;28;20336;-68
2022/12/25 01:20:00;;;;;;;;;;;28.20;96.40;;;;;;5042747;28;19970;-68
2022/12/25 01:22:27;;;;;;;;;;;28.10;96.00;;;;;;5053233;28;19909;-69
2022/12/25 01:24:54;;;;;;;;;;;27.90;96.60;;;;;;5054354;28;20250;-68
2022/12/25 01:27:20;;;;;;;;;;;28.20;96.10;;;;;;5041023;28;20561;-69
2022/12/25 01:29:47;;;;;;;;;;;28.50;95.50;;;;;;5034172;28;19919;-68
2022/12/25 01:32:14;;;;;;;;;;;28.70;94.50;;;;;;5043390;28;20011;-68
2022/12/25 01:34:41;;;;;;;;;;;28.60;95.10;;;;;;5034623;28;19966;-69
2022/12/25 01:37:08;;;;;;;;;;;28.60;95.50;;;;;;5043484;28;19913;-68
2022/12/25 01:39:35;;;;;;;;;;;28.80;95.20;;;;;;5052301;28;20377;-68
2022/12/25 01:42:01;;;;;;;;;;;29.00;94.80;;;;;;5052156;28;19908;-68
2022/12/25 01:44:37;;;;;;;;;;;29.30;94.70;;;;;;5033679;28;19920;-67
2022/12/25 01:47:04;;;;;;;;;;;29.60;94.50;;;;;;5042358;28;19917;-70
2022/12/25 01:49:31;;;;;;;;;;;30.00;93.50;;;;;;5048431;28;19909;-69
2022/12/25 01:52:00;;;;;;;;;;;30.20;92.50;;;;;;5051197;28;20325;-69
2022/12/25 01:54:28;;;;;;;;;;;30.00;93.00;;;;;;5051108;28;19912;-67
2022/12/25 01:56:56;;;;;;;;;;;30.20;93.20;;;;;;5053220;28;19909;-69
2022/12/25 01:59:25;;;;;;;;;;;30.50;92.80;;;;;;5047974;28;20438;-69
2022/12/25 02:01:51;;;;;;;;;;;30.70;92.20;;;;;;5051351;28;20316;-69
2022/12/25 02:04:37;;;;;;;;;;;30.90;91.70;;;;;;5050551;28;19918;-69
2022/12/25 02:07:13;;;;;;;;;;;30.90;91.60;;;;;;5051581;28;20000;-69
2022/12/25 02:09:40;;;;;;;;;;;31.10;91.30;;;;;;5048020;28;20222;-70
2022/12/25 02:12:07;;;;;;;;;;;31.10;91.30;;;;;;5042587;28;19933;-69
2022/12/25 02:14:35;;;;;;;;;;;31.20;90.90;;;;;;5030403;28;19925;-69
2022/12/25 02:17:05;;;;;;;;;;;31.40;90.60;;;;;;5032576;28;19913;-69
2022/12/25 02:19:41;;;;;;;;;;;31.30;90.60;;;;;;5031107;28;19917;-68
2022/12/25 02:22:18;;;;;;;;;;;31.40;91.00;;;;;;5032760;28;19909;-69
2022/12/25 02:24:44;;;;;;;;;;;31.20;91.40;;;;;;5032795;28;19917;-67
2022/12/25 02:27:14;;;;;;;;;;;31.50;90.80;;;;;;5035235;28;20210;-68
2022/12/25 02:29:59;;;;;;;;;;;31.70;90.70;;;;;;5052100;28;19995;-68
2022/12/25 02:32:28;;;;;;;;;;;31.60;90.60;;;;;;5050990;28;20338;-69
2022/12/25 02:34:55;;;;;;;;;;;31.60;90.50;;;;;;5053615;28;19988;-68
2022/12/25 02:37:32;;;;;;;;;;;31.20;90.80;;;;;;5051696;28;19915;-69
2022/12/25 02:40:09;;;;;;;;;;;31.00;91.10;;;;;;5033427;28;19917;-68
2022/12/25 03:07:51;;;;;;;;;;;32.90;86.50;;;;;;5055465;28;20443;-68
2022/12/25 03:13:04;;;;;;;;;;;33.10;85.70;;;;;;5056700;28;19935;-69
2022/12/25 03:18:33;;;;;;;;;;;33.30;85.90;;;;;;5091702;28;19927;-68
2022/12/25 03:26:55;;;;;;;;;;;33.90;84.30;;;;;;5031891;28;19951;-68
2022/12/25 03:32:19;;;;;;;;;;;35.60;80.20;;;;;;5047975;28;20260;-68
2022/12/25 04:38:34;;;;;;;;;;;37.60;72.40;;;;;;5051411;28;20835;-68
2022/12/25 04:41:01;;;;;;;;;;;37.70;70.80;;;;;;5054393;28;19943;-71
2022/12/25 04:43:27;;;;;;;;;;;38.00;70.30;;;;;;5052569;28;19920;-70
2022/12/25 04:45:55;;;;;;;;;;;37.40;71.70;;;;;;5054641;28;19916;-69
2022/12/25 04:48:22;;;;;;;;;;;37.40;71.60;;;;;;5052304;28;19915;-66
2022/12/25 04:50:48;;;;;;;;;;;38.10;70.00;;;;;;5050219;28;19920;-70
2022/12/25 04:53:16;;;;;;;;;;;38.40;70.30;;;;;;5033664;28;19916;-69
2022/12/25 04:55:43;;;;;;;;;;;39.20;69.00;;;;;;5033210;28;19915;-69
2022/12/25 04:58:09;;;;;;;;;;;38.20;69.80;;;;;;5052142;28;19920;-69
2022/12/25 05:00:36;;;;;;;;;;;38.70;69.60;;;;;;5051772;28;19958;-71
2022/12/25 05:03:03;;;;;;;;;;;39.10;69.00;;;;;;5054277;28;19916;-70
2022/12/25 05:05:29;;;;;;;;;;;39.00;69.10;;;;;;5045789;28;19939;-70
2022/12/25 05:07:56;;;;;;;;;;;39.70;68.00;;;;;;5033831;28;20383;-68
2022/12/25 05:10:23;;;;;;;;;;;40.60;66.60;;;;;;5031842;28;19931;-69
2022/12/25 05:12:50;;;;;;;;;;;39.50;68.90;;;;;;5034067;28;19912;-69
2022/12/25 05:15:17;;;;;;;;;;;39.50;67.60;;;;;;5034042;28;19943;-69
2022/12/25 05:17:43;;;;;;;;;;;39.00;68.00;;;;;;5032521;28;19913;-68
2022/12/25 05:20:10;;;;;;;;;;;37.70;69.70;;;;;;5046694;28;19916;-68
2022/12/25 05:22:37;;;;;;;;;;;36.60;72.60;;;;;;5050035;28;20007;-68
2022/12/25 05:25:03;;;;;;;;;;;37.10;71.60;;;;;;5053916;28;19917;-69
2022/12/25 05:27:30;;;;;;;;;;;37.60;70.60;;;;;;5051700;28;19981;-68
2022/12/25 05:29:57;;;;;;;;;;;37.10;72.30;;;;;;5053601;28;20396;-70
2022/12/25 05:32:23;;;;;;;;;;;37.50;70.30;;;;;;5052064;28;19916;-69
2022/12/25 05:34:50;;;;;;;;;;;37.10;71.20;;;;;;5037437;28;19916;-69
2022/12/25 05:37:16;;;;;;;;;;;36.90;72.00;;;;;;5033211;28;19909;-67
2022/12/25 05:39:43;;;;;;;;;;;36.60;72.90;;;;;;5031597;28;20549;-70
2022/12/25 05:42:10;;;;;;;;;;;36.90;73.60;;;;;;5033276;28;19913;-71
2022/12/25 05:44:36;;;;;;;;;;;36.20;74.20;;;;;;5031895;28;20258;-69
2022/12/25 05:47:03;;;;;;;;;;;35.80;75.10;;;;;;5034500;28;19913;-69
2022/12/25 05:49:30;;;;;;;;;;;35.20;76.60;;;;;;5030922;28;19995;-71
2022/12/25 05:51:57;;;;;;;;;;;34.90;77.50;;;;;;5033566;28;19909;-69
2022/12/25 05:54:23;;;;;;;;;;;34.80;78.10;;;;;;5033415;28;20115;-68
2022/12/25 05:56:50;;;;;;;;;;;34.10;78.90;;;;;;5033143;28;20417;-68
2022/12/25 05:59:16;;;;;;;;;;;33.40;81.20;;;;;;5036780;28;20087;-68
2022/12/25 06:01:43;;;;;;;;;;;32.80;83.10;;;;;;5043854;28;19913;-69
2022/12/25 06:04:10;;;;;;;;;;;32.40;83.70;;;;;;5053805;28;19974;-70
2022/12/25 06:06:36;;;;;;;;;;;31.70;86.20;;;;;;5052288;28;19908;-67
2022/12/25 06:09:03;;;;;;;;;;;31.30;87.30;;;;;;5053526;28;19916;-68
2022/12/25 06:11:29;;;;;;;;;;;31.30;87.80;;;;;;5052569;28;19919;-68
2022/12/25 06:13:56;;;;;;;;;;;31.10;88.40;;;;;;5053779;28;19909;-68
2022/12/25 06:16:23;;;;;;;;;;;30.60;89.50;;;;;;5035498;28;19920;-68
2022/12/25 06:18:53;;;;;;;;;;;30.10;90.80;;;;;;5030993;28;19917;-68
2022/12/25 06:21:20;;;;;;;;;;;29.90;91.10;;;;;;5031780;28;19939;-68
2022/12/25 06:23:46;;;;;;;;;;;29.80;91.40;;;;;;5035338;28;19909;-68
2022/12/25 06:26:15;;;;;;;;;;;29.70;91.30;;;;;;5036221;28;19916;-69
2022/12/25 06:28:42;;;;;;;;;;;29.60;92.10;;;;;;5057708;28;19927;-72
2022/12/25 06:31:09;;;;;;;;;;;29.90;91.70;;;;;;5054627;28;19936;-69
2022/12/25 06:33:37;;;;;;;;;;;30.00;91.70;;;;;;5055163;28;19930;-69
2022/12/25 06:36:07;;;;;;;;;;;29.60;92.00;;;;;;5054954;28;19987;-69
2022/12/25 06:38:34;;;;;;;;;;;29.40;92.60;;;;;;5057274;28;20379;-68
2022/12/25 06:41:05;;;;;;;;;;;29.40;92.30;;;;;;5053532;28;19915;-69
2022/12/25 06:43:32;;;;;;;;;;;29.60;92.40;;;;;;5056553;28;20350;-68
2022/12/25 06:46:03;;;;;;;;;;;29.60;92.30;;;;;;5055799;28;20013;-69
2022/12/25 06:48:31;;;;;;;;;;;29.50;92.60;;;;;;5054400;28;19909;-68
2022/12/25 06:50:57;;;;;;;;;;;29.40;93.30;;;;;;5055262;28;19959;-68
2022/12/25 06:53:24;;;;;;;;;;;29.60;92.50;;;;;;5054630;28;20007;-67
2022/12/25 06:55:51;;;;;;;;;;;29.30;92.80;;;;;;5051166;28;20546;-68
2022/12/25 06:58:17;;;;;;;;;;;29.20;93.10;;;;;;5055064;28;19986;-68
2022/12/25 07:00:44;;;;;;;;;;;29.20;93.30;;;;;;5049798;28;19909;-69
2022/12/25 07:03:14;;;;;;;;;;;29.50;93.40;;;;;;5033247;28;19949;-70
2022/12/25 07:05:40;;;;;;;;;;;29.70;93.10;;;;;;5036303;28;20014;-70
2022/12/25 07:08:07;;;;;;;;;;;29.90;92.90;;;;;;5039026;28;19983;-70
2022/12/25 07:10:33;;;;;;;;;;;29.90;92.70;;;;;;5056081;28;20356;-69
2022/12/25 07:13:00;;;;;;;;;;;30.10;92.40;;;;;;5055188;28;19982;-69
2022/12/25 07:15:27;;;;;;;;;;;30.20;92.40;;;;;;5054455;28;19916;-69
2022/12/25 07:17:53;;;;;;;;;;;30.30;92.20;;;;;;5055580;28;20700;-68
2022/12/25 07:20:20;;;;;;;;;;;30.30;91.90;;;;;;5054277;28;20026;-70
2022/12/25 07:22:46;;;;;;;;;;;30.00;92.20;;;;;;5045647;28;19913;-68
2022/12/25 07:25:13;;;;;;;;;;;29.80;92.50;;;;;;5033465;28;19972;-68
2022/12/25 07:27:40;;;;;;;;;;;29.80;92.30;;;;;;5036403;28;19916;-67
2022/12/25 07:30:07;;;;;;;;;;;29.80;92.60;;;;;;5034973;28;20395;-67
2022/12/25 07:32:34;;;;;;;;;;;29.80;92.30;;;;;;5034492;28;19921;-68
2022/12/25 07:35:00;;;;;;;;;;;29.70;92.30;;;;;;5034441;28;19919;-67
2022/12/25 07:37:27;;;;;;;;;;;29.70;92.30;;;;;;5053066;28;19935;-69
2022/12/25 07:39:53;;;;;;;;;;;29.30;92.40;;;;;;5055930;28;20250;-69
2022/12/25 07:42:20;;;;;;;;;;;29.10;93.20;;;;;;5053509;28;19908;-67
2022/12/25 07:44:47;;;;;;;;;;;29.10;92.90;;;;;;5056193;28;19928;-68
2022/12/25 07:47:14;;;;;;;;;;;29.10;93.20;;;;;;5054056;28;19954;-67
2022/12/25 07:49:40;;;;;;;;;;;29.10;93.20;;;;;;5051377;28;19957;-69
2022/12/25 07:52:07;;;;;;;;;;;29.00;93.20;;;;;;5034209;28;19908;-69
2022/12/25 07:54:34;;;;;;;;;;;28.70;93.80;;;;;;5037414;28;19961;-69
2022/12/25 07:57:00;;;;;;;;;;;28.50;94.00;;;;;;5054873;28;20344;-69
2022/12/25 07:59:27;;;;;;;;;;;28.40;94.30;;;;;;5053927;28;20287;-69
2022/12/25 08:01:53;;;;;;;;;;;28.30;94.60;;;;;;5055421;28;19914;-68
2022/12/25 08:04:20;;;;;;;;;;;28.10;95.00;;;;;;5038482;28;20316;-69
2022/12/25 08:06:47;;;;;;;;;;;28.00;95.50;;;;;;5035193;28;19905;-68
2022/12/25 08:09:13;;;;;;;;;;;27.80;95.50;;;;;;5034147;28;20025;-70
2022/12/25 08:11:44;;;;;;;;;;;27.60;96.20;;;;;;5034057;28;20532;-68
2022/12/25 08:14:11;;;;;;;;;;;27.60;96.10;;;;;;5033858;28;19913;-69
2022/12/25 08:16:41;;;;;;;;;;;27.40;96.70;;;;;;5048774;28;19909;-68
2022/12/25 08:19:08;;;;;;;;;;;27.30;97.00;;;;;;5053992;28;19921;-68
2022/12/25 08:21:34;;;;;;;;;;;27.10;97.50;;;;;;5053715;28;19908;-69
2022/12/25 08:24:02;;;;;;;;;;;26.80;97.90;;;;;;5055326;28;19908;-69
2022/12/25 08:26:28;;;;;;;;;;;26.60;98.90;;;;;;5052174;28;19927;-68
2022/12/25 08:28:55;;;;;;;;;;;26.50;99.00;;;;;;5053846;28;19916;-69
2022/12/25 08:31:21;;;;;;;;;;;26.30;99.90;;;;;;5034185;28;19962;-69
2022/12/25 08:33:49;;;;;;;;;;;26.30;99.80;;;;;;5035490;28;19920;-67
2022/12/25 08:36:16;;;;;;;;;;;26.20;99.90;;;;;;5037637;28;20054;-68
2022/12/25 08:38:43;;;;;;;;;;;26.10;99.90;;;;;;5033875;28;19932;-68
2022/12/25 08:41:14;;;;;;;;;;;26.10;99.90;;;;;;5035578;28;20226;-67
2022/12/25 08:43:41;;;;;;;;;;;25.90;99.90;;;;;;5033899;28;19912;-67
2022/12/25 08:46:08;;;;;;;;;;;25.70;99.90;;;;;;5055272;28;19908;-67
2022/12/25 08:48:35;;;;;;;;;;;25.60;99.90;;;;;;5054015;28;19916;-67
2022/12/25 08:51:02;;;;;;;;;;;25.40;99.90;;;;;;5055656;28;19908;-67
2022/12/25 08:53:28;;;;;;;;;;;25.30;99.90;;;;;;5052734;28;20319;-67
2022/12/25 08:56:05;;;;;;;;;;;25.20;99.90;;;;;;5055428;28;19988;-69
2022/12/25 08:58:32;;;;;;;;;;;25.20;99.90;;;;;;5037575;28;19921;-69
2022/12/25 09:00:59;;;;;;;;;;;25.30;99.90;;;;;;5035782;28;19912;-68
2022/12/25 09:03:26;;;;;;;;;;;25.10;99.90;;;;;;5033977;28;19932;-68
2022/12/25 09:05:53;;;;;;;;;;;25.00;99.90;;;;;;5032692;28;19908;-69
2022/12/25 09:08:20;;;;;;;;;;;25.00;99.90;;;;;;5034738;28;19909;-69
2022/12/25 09:10:48;;;;;;;;;;;25.00;99.90;;;;;;5031634;28;20008;-69
2022/12/25 09:13:14;;;;;;;;;;;24.90;99.90;;;;;;5054348;28;19916;-69
2022/12/25 09:15:41;;;;;;;;;;;24.80;99.90;;;;;;5052434;28;19930;-70
2022/12/25 09:18:08;;;;;;;;;;;24.70;99.90;;;;;;5053056;28;19912;-68
2022/12/25 09:20:34;;;;;;;;;;;24.60;99.90;;;;;;5052693;28;20375;-69
2022/12/25 09:23:01;;;;;;;;;;;24.50;99.90;;;;;;5051431;28;19905;-69
2022/12/25 09:25:27;;;;;;;;;;;24.40;99.90;;;;;;5050264;28;19913;-70
2022/12/25 09:27:55;;;;;;;;;;;24.40;99.90;;;;;;5031087;28;19913;-68
2022/12/25 09:30:22;;;;;;;;;;;24.40;99.90;;;;;;5034606;28;20372;-67
2022/12/25 09:32:48;;;;;;;;;;;24.40;99.90;;;;;;5031164;28;20027;-67
2022/12/25 09:35:17;;;;;;;;;;;24.40;99.90;;;;;;5042236;28;19976;-69
2022/12/25 09:37:44;;;;;;;;;;;24.30;99.90;;;;;;5032304;28;19939;-70
2022/12/25 09:40:16;;;;;;;;;;;24.30;99.90;;;;;;5040263;28;19924;-67
2022/12/25 09:42:43;;;;;;;;;;;24.30;99.90;;;;;;5048139;28;19932;-67
2022/12/25 09:45:32;;;;;;;;;;;24.30;99.90;;;;;;5031889;28;19984;-68
2022/12/25 09:47:59;;;;;;;;;;;24.30;99.90;;;;;;5031400;28;19951;-69
2022/12/25 09:50:25;;;;;;;;;;;24.20;99.90;;;;;;5034953;28;19916;-68
2022/12/25 09:52:56;;;;;;;;;;;24.20;99.90;;;;;;5030360;28;19969;-68
2022/12/25 09:55:24;;;;;;;;;;;24.30;99.90;;;;;;5040905;28;19908;-69
2022/12/25 09:57:52;;;;;;;;;;;24.20;99.90;;;;;;5041144;28;19920;-69
2022/12/25 10:00:20;;;;;;;;;;;24.20;99.90;;;;;;5036644;28;20375;-69
2022/12/25 10:02:53;;;;;;;;;;;24.10;99.90;;;;;;5037781;28;20012;-70
2022/12/25 10:05:29;;;;;;;;;;;24.10;99.90;;;;;;5035346;28;19991;-70
2022/12/25 10:08:31;;;;;;;;;;;24.20;99.90;;;;;;5033544;28;19916;-69
2022/12/25 10:11:30;;;;;;;;;;;24.20;99.90;;;;;;5032544;28;20099;-68
2022/12/25 10:14:09;;;;;;;;;;;24.20;99.90;;;;;;5006338;28;20323;-70
2022/12/25 10:16:50;;;;;;;;;;;24.10;99.90;;;;;;5057741;28;19948;-69
2022/12/25 10:19:37;;;;;;;;;;;24.10;99.90;;;;;;5053855;28;20088;-69
2022/12/25 10:22:10;;;;;;;;;;;24.10;99.90;;;;;;5055512;28;19995;-69
2022/12/25 10:24:43;;;;;;;;;;;24.00;99.90;;;;;;5057264;28;20004;-68
2022/12/25 10:27:23;;;;;;;;;;;24.00;99.90;;;;;;5057556;28;20003;-70
2022/12/25 10:29:52;;;;;;;;;;;24.00;99.90;;;;;;5036961;28;19916;-68
2022/12/25 10:32:19;;;;;;;;;;;23.90;99.90;;;;;;5034418;28;19909;-69
2022/12/25 10:34:46;;;;;;;;;;;23.80;99.90;;;;;;5037310;28;19913;-69
2022/12/25 10:37:12;;;;;;;;;;;23.80;99.90;;;;;;5036248;28;19909;-69
2022/12/25 10:39:39;;;;;;;;;;;23.80;99.90;;;;;;5056710;28;19998;-70
2022/12/25 10:42:21;;;;;;;;;;;23.80;99.90;;;;;;5051540;28;19968;-68
2022/12/25 10:44:55;;;;;;;;;;;23.70;99.90;;;;;;5036025;28;19916;-69
2022/12/25 10:47:26;;;;;;;;;;;23.80;99.90;;;;;;5035951;28;19955;-69
2022/12/25 10:49:53;;;;;;;;;;;23.80;99.90;;;;;;5036487;28;19998;-69
2022/12/25 10:52:22;;;;;;;;;;;23.80;99.90;;;;;;5035839;28;20126;-68
2022/12/25 10:54:49;;;;;;;;;;;23.70;99.90;;;;;;5037532;28;19908;-68
2022/12/25 10:57:17;;;;;;;;;;;23.70;99.90;;;;;;5037166;28;19912;-70
2022/12/25 10:59:45;;;;;;;;;;;23.70;99.90;;;;;;5038168;28;19959;-70
2022/12/25 11:02:41;;;;;;;;;;;23.70;99.90;;;;;;5037432;28;19932;-69
2022/12/25 11:05:13;;;;;;;;;;;23.60;99.90;;;;;;5036789;28;19909;-68
2022/12/25 11:07:53;;;;;;;;;;;23.60;99.90;;;;;;5037330;28;19925;-70
2022/12/25 11:10:31;;;;;;;;;;;23.60;99.90;;;;;;5035695;28;19966;-70
2022/12/25 11:12:59;;;;;;;;;;;23.50;99.90;;;;;;5035333;28;19909;-68
2022/12/25 11:15:45;;;;;;;;;;;23.50;99.90;;;;;;5035186;28;20377;-68
2022/12/25 11:18:20;;;;;;;;;;;23.50;99.90;;;;;;5036204;28;19923;-68
2022/12/25 11:20:49;;;;;;;;;;;23.40;99.90;;;;;;5054841;28;19978;-69
2022/12/25 11:23:19;;;;;;;;;;;23.30;99.90;;;;;;5050321;28;20026;-69
2022/12/25 11:26:05;;;;;;;;;;;23.30;99.90;;;;;;5034170;28;19944;-70
2022/12/25 11:28:34;;;;;;;;;;;23.30;99.90;;;;;;5034506;28;19912;-70
2022/12/25 11:31:18;;;;;;;;;;;23.30;99.90;;;;;;5034769;28;19913;-68
2022/12/25 11:33:50;;;;;;;;;;;23.30;99.90;;;;;;5035182;28;19920;-68
2022/12/25 11:36:25;;;;;;;;;;;23.30;99.90;;;;;;5036107;28;19909;-70
2022/12/25 11:38:52;;;;;;;;;;;23.20;99.90;;;;;;5034259;28;19974;-70
2022/12/25 11:41:22;;;;;;;;;;;23.20;99.90;;;;;;5035924;28;19955;-70
2022/12/25 11:43:51;;;;;;;;;;;23.10;99.90;;;;;;5034107;28;20088;-69
2022/12/25 11:46:39;;;;;;;;;;;23.10;99.90;;;;;;5036416;28;19909;-69
2022/12/25 11:49:07;;;;;;;;;;;23.10;99.90;;;;;;5035033;28;19913;-68
2022/12/25 11:51:36;;;;;;;;;;;23.10;99.90;;;;;;5046447;28;19925;-67
2022/12/25 11:54:08;;;;;;;;;;;23.10;99.90;;;;;;5054233;28;19913;-67
2022/12/25 11:56:36;;;;;;;;;;;23.00;99.90;;;;;;5054474;28;19966;-69
2022/12/25 11:59:05;;;;;;;;;;;23.00;99.90;;;;;;5053662;28;19943;-68
2022/12/25 12:01:32;;;;;;;;;;;23.00;99.90;;;;;;5045458;28;19913;-68
2022/12/25 12:04:02;;;;;;;;;;;23.00;99.90;;;;;;5033487;28;20542;-68
2022/12/25 12:06:34;;;;;;;;;;;23.00;99.90;;;;;;5034759;28;19919;-69
2022/12/25 12:09:27;;;;;;;;;;;23.00;99.90;;;;;;5032992;28;19920;-68
2022/12/25 12:12:13;;;;;;;;;;;23.00;99.90;;;;;;5032273;28;19909;-69
2022/12/25 12:14:41;;;;;;;;;;;23.10;99.90;;;;;;5034608;28;19913;-66
2022/12/25 12:17:11;;;;;;;;;;;23.10;99.90;;;;;;5053071;28;20318;-68
2022/12/25 12:19:38;;;;;;;;;;;23.10;99.90;;;;;;5049411;28;19934;-68
2022/12/25 12:22:05;;;;;;;;;;;23.20;99.90;;;;;;5051854;28;20630;-67
2022/12/25 12:24:37;;;;;;;;;;;23.20;99.90;;;;;;5054221;28;19954;-70
2022/12/25 12:27:05;;;;;;;;;;;23.20;99.90;;;;;;5048526;28;20278;-69
2022/12/25 12:29:39;;;;;;;;;;;23.30;99.90;;;;;;5041251;28;19919;-69
2022/12/25 12:32:18;;;;;;;;;;;23.30;99.90;;;;;;5040193;28;19915;-68
2022/12/25 12:34:48;;;;;;;;;;;23.30;99.90;;;;;;5053063;28;19922;-69
2022/12/25 12:37:27;;;;;;;;;;;23.30;99.90;;;;;;5051744;28;19922;-69
2022/12/25 12:39:54;;;;;;;;;;;23.20;99.90;;;;;;5052348;28;19921;-67
2022/12/25 12:42:32;;;;;;;;;;;23.20;99.90;;;;;;5051950;28;19940;-67
2022/12/25 12:45:07;;;;;;;;;;;23.20;99.90;;;;;;5053041;28;19960;-68
2022/12/25 12:47:49;;;;;;;;;;;23.20;99.90;;;;;;5053753;28;20045;-69
2022/12/25 12:50:28;;;;;;;;;;;23.30;99.90;;;;;;5049881;28;19913;-69
2022/12/25 12:52:55;;;;;;;;;;;23.30;99.90;;;;;;5032623;28;19916;-68
2022/12/25 12:55:29;;;;;;;;;;;23.30;99.90;;;;;;5033546;28;19913;-68
2022/12/25 12:57:59;;;;;;;;;;;23.20;99.90;;;;;;5033473;28;20015;-68
2022/12/25 13:00:28;;;;;;;;;;;23.30;99.90;;;;;;5034393;28;20074;-68
2022/12/25 13:03:13;;;;;;;;;;;23.20;99.90;;;;;;5032200;28;19908;-67
2022/12/25 13:05:48;;;;;;;;;;;23.20;99.90;;;;;;5032853;28;19909;-70
2022/12/25 13:08:33;;;;;;;;;;;23.30;99.90;;;;;;5032627;28;19909;-68
2022/12/25 13:11:07;;;;;;;;;;;23.20;99.90;;;;;;5040319;28;19969;-69
2022/12/25 13:13:36;;;;;;;;;;;23.20;99.90;;;;;;5033586;28;19955;-68
2022/12/25 13:16:03;;;;;;;;;;;23.20;99.90;;;;;;5033395;28;19908;-69
2022/12/25 13:18:31;;;;;;;;;;;23.20;99.90;;;;;;5034484;28;20488;-69
2022/12/25 13:21:03;;;;;;;;;;;23.10;99.90;;;;;;5030064;28;19966;-69
2022/12/25 13:23:31;;;;;;;;;;;23.10;99.90;;;;;;5032886;28;19909;-67
2022/12/25 13:25:59;;;;;;;;;;;23.10;99.90;;;;;;5047180;28;19915;-70
2022/12/25 13:28:26;;;;;;;;;;;23.10;99.90;;;;;;5052716;28;20315;-68
2022/12/25 13:30:53;;;;;;;;;;;23.10;99.90;;;;;;5051945;28;19909;-68
2022/12/25 13:33:21;;;;;;;;;;;23.10;99.90;;;;;;5051906;28;19952;-71
2022/12/25 13:35:47;;;;;;;;;;;23.10;99.90;;;;;;5052786;28;20315;-67
2022/12/25 13:38:16;;;;;;;;;;;23.10;99.90;;;;;;5050522;28;19916;-70
2022/12/25 13:42:04;;;;;;;;;;;23.10;99.90;;;;;;5053169;28;19970;-70
2022/12/25 13:43:35;;;;;;;;;;;23.00;99.90;;;;;;5053855;28;20369;-69
2022/12/25 13:46:02;;;;;;;;;;;23.00;99.90;;;;;;5051252;28;19935;-69
2022/12/25 13:48:30;;;;;;;;;;;23.00;99.90;;;;;;5052434;28;19909;-70
2022/12/25 13:50:58;;;;;;;;;;;23.00;99.90;;;;;;5052207;28;19912;-71
2022/12/25 13:53:24;;;;;;;;;;;22.90;99.90;;;;;;5042080;28;19913;-69
2022/12/25 13:55:53;;;;;;;;;;;23.00;99.90;;;;;;5032910;28;19917;-68
2022/12/25 13:58:28;;;;;;;;;;;22.90;99.90;;;;;;5031259;28;19939;-68
2022/12/25 14:00:58;;;;;;;;;;;22.90;99.90;;;;;;5032880;28;20413;-70
2022/12/25 14:03:25;;;;;;;;;;;22.80;99.90;;;;;;5032271;28;19909;-69
2022/12/25 14:06:02;;;;;;;;;;;22.80;99.90;;;;;;5032947;28;19913;-68
2022/12/25 14:08:32;;;;;;;;;;;22.80;99.90;;;;;;5052747;28;19963;-69
2022/12/25 14:11:03;;;;;;;;;;;22.70;99.90;;;;;;5051968;28;19913;-68
2022/12/25 14:13:32;;;;;;;;;;;22.70;99.90;;;;;;5040639;28;19909;-69
2022/12/25 14:15:59;;;;;;;;;;;22.70;99.90;;;;;;5052069;28;19913;-67
2022/12/25 14:18:26;;;;;;;;;;;22.70;99.90;;;;;;5049830;28;19913;-68
2022/12/25 14:20:55;;;;;;;;;;;22.70;99.90;;;;;;5051004;28;19908;-67
2022/12/25 14:23:22;;;;;;;;;;;22.70;99.90;;;;;;5051595;28;20121;-67
2022/12/25 14:25:49;;;;;;;;;;;22.60;99.90;;;;;;5053588;28;19931;-68
2022/12/25 14:28:25;;;;;;;;;;;22.60;99.90;;;;;;5049755;28;19908;-70
2022/12/25 14:30:55;;;;;;;;;;;22.60;99.90;;;;;;5052710;28;20246;-69
2022/12/25 14:33:23;;;;;;;;;;;22.60;99.90;;;;;;5038531;28;19924;-67
2022/12/25 14:35:50;;;;;;;;;;;22.50;99.90;;;;;;5033399;28;19943;-71
2022/12/25 14:38:27;;;;;;;;;;;22.50;99.90;;;;;;5032072;28;19916;-70
2022/12/25 14:41:01;;;;;;;;;;;22.50;99.90;;;;;;5032043;28;20357;-69
2022/12/25 14:43:28;;;;;;;;;;;22.40;99.90;;;;;;5044762;28;20298;-66
2022/12/25 14:45:56;;;;;;;;;;;22.40;99.90;;;;;;5055713;28;20331;-69
2022/12/25 14:48:27;;;;;;;;;;;22.30;99.90;;;;;;5054690;28;19931;-69
2022/12/25 14:51:06;;;;;;;;;;;22.40;99.90;;;;;;5056255;28;20238;-71
2022/12/25 14:53:58;;;;;;;;;;;22.30;99.90;;;;;;5055235;28;19919;-69
2022/12/25 14:56:26;;;;;;;;;;;22.30;99.90;;;;;;5048429;28;19909;-69
2022/12/25 14:58:54;;;;;;;;;;;22.30;99.90;;;;;;5037744;28;20342;-69
2022/12/25 15:01:31;;;;;;;;;;;22.20;99.90;;;;;;5035605;28;19999;-69
2022/12/25 15:04:10;;;;;;;;;;;22.20;99.90;;;;;;5035274;28;20543;-68
2022/12/25 15:06:41;;;;;;;;;;;22.20;99.90;;;;;;5035385;28;19928;-70
2022/12/25 15:09:15;;;;;;;;;;;22.10;99.90;;;;;;5034781;28;20239;-69
2022/12/25 15:11:42;;;;;;;;;;;22.10;99.90;;;;;;5036262;28;19909;-68
2022/12/25 15:14:08;;;;;;;;;;;22.10;99.90;;;;;;5034942;28;19917;-70
2022/12/25 15:16:41;;;;;;;;;;;22.10;99.90;;;;;;5034673;28;19927;-69
2022/12/25 15:19:09;;;;;;;;;;;22.00;99.90;;;;;;5034764;28;19963;-68
2022/12/25 15:21:36;;;;;;;;;;;22.10;99.90;;;;;;5034705;28;20289;-68
2022/12/25 15:24:03;;;;;;;;;;;22.10;99.90;;;;;;5039100;28;19962;-69
2022/12/25 15:26:31;;;;;;;;;;;22.00;99.90;;;;;;5054400;28;19920;-70
2022/12/25 15:28:58;;;;;;;;;;;22.00;99.90;;;;;;5055846;28;20351;-70
2022/12/25 15:31:29;;;;;;;;;;;22.00;99.90;;;;;;5054632;28;19955;-68
2022/12/25 15:33:57;;;;;;;;;;;22.00;99.90;;;;;;5055581;28;19921;-70
2022/12/25 15:36:24;;;;;;;;;;;22.00;99.90;;;;;;5054751;28;19913;-68
2022/12/25 15:38:51;;;;;;;;;;;22.00;99.90;;;;;;5040369;28;20015;-69
2022/12/25 15:44:07;;;;;;;;;;;22.00;99.90;;;;;;5034612;28;20308;-69
2022/12/25 15:46:34;;;;;;;;;;;22.00;99.90;;;;;;5035517;28;19935;-69
2022/12/25 15:49:01;;;;;;;;;;;22.00;99.90;;;;;;5036435;28;19928;-68
2022/12/25 15:51:27;;;;;;;;;;;22.00;99.90;;;;;;5036330;28;19920;-67
2022/12/25 15:53:54;;;;;;;;;;;22.00;99.90;;;;;;5034821;28;19909;-67
2022/12/25 15:56:21;;;;;;;;;;;22.00;99.90;;;;;;5033530;28;20588;-69
2022/12/25 15:58:48;;;;;;;;;;;22.00;99.90;;;;;;5034560;28;19987;-67
2022/12/25 16:01:16;;;;;;;;;;;21.90;99.90;;;;;;5033968;28;19931;-69
2022/12/25 16:03:43;;;;;;;;;;;21.90;99.90;;;;;;5039932;28;20411;-67
2022/12/25 16:06:14;;;;;;;;;;;21.90;99.90;;;;;;5053219;28;19913;-66
2022/12/25 16:08:41;;;;;;;;;;;22.00;99.90;;;;;;5040622;28;19912;-67
2022/12/25 16:11:08;;;;;;;;;;;21.90;99.90;;;;;;5034196;28;20000;-70
2022/12/25 16:13:34;;;;;;;;;;;21.90;99.90;;;;;;5034072;28;19963;-68
2022/12/25 16:16:02;;;;;;;;;;;21.90;99.90;;;;;;5035468;28;19908;-67
2022/12/25 16:18:29;;;;;;;;;;;21.80;99.90;;;;;;5033412;28;20377;-70